ADDS METAR Data INFO
IDs: Format: Raw Decoded Include TAF

Data at: 0742 UTC 21 Jul 2018

PAMH 210656Z AUTO 00000KT 10SM CLR 20/12 A3020 RMK AO2 SLP979 T02000117
PAMH 210556Z AUTO 00000KT 10SM CLR 22/12 A3019 RMK AO2 SLP975 T02170117 10261 20217 53001
PAMH 210456Z AUTO 00000KT 10SM BKN070 24/11 A3018 RMK AO2 SLP973 T02390106
PAMH 210356Z AUTO 00000KT 10SM CLR 24/10 A3017 RMK AO2 SLP971 T02440100
PAMH 210256Z AUTO VRB03KT 10SM BKN070 26/09 A3018 RMK AO2 SLP975 T02560094 56008
PAMH 210156Z AUTO VRB03KT 10SM SCT070 24/09 A3019 RMK AO2 SLP976 T02440094
PAMH 210056Z AUTO 22006KT 10SM FEW060 25/09 A3019 RMK AO2 SLP978 T02500094
PAMH 202356Z AUTO VRB03KT 10SM BKN060 24/10 A3021 RMK AO2 SLP983 T02440100 10250 20161 56009
PAMH 202256Z AUTO 22004KT 10SM FEW055 24/11 A3022 RMK AO2 SLP985 T02390111
PAMH 202156Z AUTO 00000KT 10SM SCT050 22/11 A3023 RMK AO2 SLP989 T02220111
PAMH 202056Z AUTO 07003KT 9SM CLR 22/11 A3024 RMK AO2 SLP992 T02170111 56005
PAMH 201956Z AUTO 13003KT 10SM CLR 19/11 A3024 RMK AO2 SLP993 T01940106
PAMH 201856Z AUTO VRB03KT 10SM CLR 17/10 A3025 RMK AO2 SLP995 T01670100
PAMH 201756Z AUTO 00000KT 10SM CLR 16/09 A3025 RMK AO2 SLP997 T01610094 10161 20100 55000
PAMH 201656Z AUTO 00000KT 10SM CLR 14/11 A3025 RMK AO2 SLP997 T01440111
PAMH 201556Z AUTO 00000KT 10SM CLR 13/11 A3025 RMK AO2 SLP996 T01330106
PAMH 201456Z AUTO 00000KT 10SM CLR 11/09 A3025 RMK AO2 SLP997 T01110094 50002
PAMH 201356Z AUTO 00000KT 10SM CLR 10/09 A3025 RMK AO2 SLP997 T01000089
PAMH 201256Z AUTO 00000KT 10SM CLR 11/08 A3025 RMK AO2 SLP997 T01110083
PAMH 201156Z AUTO 00000KT 10SM CLR 12/09 A3025 RMK AO2 SLP995 T01170089 10172 20117 51004
PAMH 201056Z AUTO 00000KT 10SM CLR 13/09 A3024 RMK AO2 SLP994 T01280089
PAMH 200956Z AUTO 00000KT 10SM CLR 13/09 A3024 RMK AO2 SLP994 T01280089
PAMH 200856Z AUTO 00000KT 10SM CLR 13/09 A3023 RMK AO2 SLP991 T01330094 402500111 51014
PAMH 200756Z AUTO 00000KT 10SM CLR 14/09 A3022 RMK AO2 SLP987 T01390094
PAMH 200656Z AUTO 00000KT 10SM CLR 16/10 A3021 RMK AO2 SLP982 T01560100
PAMH 200556Z AUTO 00000KT 10SM CLR 17/09 A3019 RMK AO2 SLP977 T01720094 10250 20172 51014
PAMH 200456Z AUTO 00000KT 8SM CLR 19/10 A3018 RMK AO2 SLP973 T01940100
PAMH 200356Z AUTO VRB03KT 10SM BKN060 OVC120 21/10 A3017 RMK AO2 SLP969 T02110100
PAMH 200256Z AUTO VRB03KT 10SM BKN055 22/11 A3015 RMK AO2 SLP963 T02220111 55001
PAMH 200156Z AUTO 00000KT 10SM BKN090 24/11 A3014 RMK AO2 SLP962 T02390111
PAMH 200056Z AUTO 00000KT 10SM BKN090 23/12 A3015 RMK AO2 SLP963 T02280117
PAMH 192356Z AUTO VRB05KT 10SM BKN055 BKN070 OVC100 22/11 A3015 RMK AO2 SLP965 T02220111 10233 20183 58001
PAMH 192256Z AUTO VRB05KT 10SM OVC060 23/11 A3016 RMK AO2 SLP965 T02280106
PAMH 192156Z AUTO VRB04KT 10SM BKN050 OVC060 23/11 A3016 RMK AO2 SLP965 T02280106
PAMH 192056Z AUTO VRB03KT 10SM SCT080 21/11 A3016 RMK AO2 SLP966 T02060106 58001
PAMH 191956Z AUTO VRB03KT 10SM BKN046 OVC075 20/11 A3016 RMK AO2 SLP966 T02000106